createdAt,value
2018-02-11T00:00:52.789Z,36.10
2018-02-11T00:03:31.225Z,35.00
2018-02-11T00:06:09.717Z,36.30
2018-02-11T00:08:48.113Z,34.10
2018-02-11T00:11:26.678Z,35.20
2018-02-11T00:14:05.088Z,35.40
2018-02-11T00:16:44.131Z,35.60
2018-02-11T00:19:25.154Z,36.00
2018-02-11T00:22:03.621Z,36.20
2018-02-11T00:24:45.207Z,35.70
2018-02-11T00:27:24.724Z,37.10
2018-02-11T00:30:03.271Z,36.90
2018-02-11T00:32:42.717Z,37.60
2018-02-11T00:35:22.225Z,38.20
2018-02-11T00:38:06.784Z,38.30
2018-02-11T00:40:45.368Z,37.30
2018-02-11T00:43:23.772Z,38.00
2018-02-11T00:46:03.423Z,37.00
2018-02-11T00:48:42.157Z,37.10
2018-02-11T00:51:20.920Z,38.30
2018-02-11T00:54:00.571Z,37.20
2018-02-11T00:56:39.003Z,37.20
2018-02-11T00:59:17.616Z,36.90
2018-02-11T01:01:57.196Z,37.60
2018-02-11T01:04:35.945Z,38.30
2018-02-11T01:07:16.244Z,37.20
2018-02-11T01:09:54.854Z,37.40
2018-02-11T01:12:33.505Z,37.10
2018-02-11T01:15:11.927Z,37.70
2018-02-11T01:17:50.690Z,38.20
2018-02-11T01:20:31.309Z,37.80
2018-02-11T01:23:10.042Z,38.10
2018-02-11T01:25:47.698Z,38.50
2018-02-11T01:28:26.009Z,38.80
2018-02-11T01:31:04.634Z,39.60
2018-02-11T01:33:43.200Z,40.20
2018-02-11T01:36:22.859Z,41.30
2018-02-11T01:39:01.233Z,41.40
2018-02-11T01:41:40.763Z,41.50
2018-02-11T01:44:19.297Z,41.80
2018-02-11T01:46:58.551Z,41.30
2018-02-11T01:49:39.640Z,41.00
2018-02-11T01:52:18.788Z,41.80
2018-02-11T01:54:57.218Z,43.00
2018-02-11T01:57:35.661Z,42.60
2018-02-11T02:00:17.185Z,43.80
2018-02-11T02:02:55.686Z,43.90
2018-02-11T02:05:34.080Z,43.60
2018-02-11T02:08:12.495Z,43.20
2018-02-11T02:10:51.028Z,43.00
2018-02-11T02:13:29.532Z,42.90
2018-02-11T02:16:09.045Z,42.20
2018-02-11T02:18:47.494Z,42.20
2018-02-11T02:21:26.899Z,43.90
2018-02-11T02:24:09.737Z,43.80
2018-02-11T02:26:48.125Z,45.80
2018-02-11T02:29:26.672Z,44.60
2018-02-11T02:32:06.218Z,46.10
2018-02-11T02:34:45.847Z,44.70
2018-02-11T02:37:25.390Z,44.80
2018-02-11T02:40:04.722Z,45.20
2018-02-11T02:42:44.169Z,45.10
2018-02-11T02:45:23.279Z,45.30
2018-02-11T02:50:48.089Z,44.50
2018-02-11T02:53:28.513Z,44.50
2018-02-11T02:56:07.992Z,45.70
2018-02-11T02:58:46.692Z,47.30
2018-02-11T03:01:26.435Z,45.70
2018-02-11T03:04:04.900Z,45.40
2018-02-11T03:06:45.609Z,47.90
2018-02-11T03:09:24.527Z,49.10
2018-02-11T03:12:03.250Z,49.40
2018-02-11T03:14:41.804Z,48.50
2018-02-11T03:17:23.396Z,49.50
2018-02-11T03:20:03.013Z,50.80
2018-02-11T03:22:42.834Z,51.60
2018-02-11T03:25:21.333Z,51.70
2018-02-11T03:28:00.029Z,51.70
2018-02-11T03:30:39.345Z,52.70
2018-02-11T03:33:17.396Z,54.00
2018-02-11T03:35:55.978Z,53.90
2018-02-11T03:38:34.962Z,56.20
2018-02-11T03:41:13.847Z,55.40
2018-02-11T03:43:52.756Z,55.60
2018-02-11T03:46:30.283Z,55.60
2018-02-11T03:49:10.860Z,55.80
2018-02-11T03:51:49.493Z,57.00
2018-02-11T03:54:29.093Z,57.80
2018-02-11T03:57:06.911Z,57.80
2018-02-11T03:59:45.591Z,58.40
2018-02-11T04:02:24.549Z,58.90
2018-02-11T04:05:03.019Z,59.10
2018-02-11T04:10:23.400Z,59.10
2018-02-11T04:13:02.440Z,59.20
2018-02-11T04:15:43.002Z,59.70
2018-02-11T04:18:22.136Z,60.00
2018-02-11T04:21:01.974Z,59.80
2018-02-11T04:23:42.723Z,60.50
2018-02-11T04:26:23.292Z,60.70
2018-02-11T04:29:01.768Z,60.60
2018-02-11T04:31:40.551Z,60.90
2018-02-11T04:34:20.093Z,61.90
2018-02-11T04:37:02.206Z,61.50
2018-02-11T04:39:40.456Z,61.40
2018-02-11T04:42:18.875Z,61.60
2018-02-11T04:44:59.440Z,61.80
2018-02-11T04:47:38.011Z,61.80
2018-02-11T04:50:16.398Z,62.60
2018-02-11T04:52:54.754Z,62.60
2018-02-11T04:55:33.395Z,62.60
2018-02-11T04:58:13.003Z,63.50
2018-02-11T05:00:53.137Z,63.40
2018-02-11T05:03:33.419Z,63.10
2018-02-11T05:06:11.987Z,63.10
2018-02-11T05:08:50.850Z,63.10
2018-02-11T05:11:29.462Z,63.40
2018-02-11T05:14:08.150Z,63.90
2018-02-11T05:16:46.930Z,64.00
2018-02-11T05:19:27.458Z,64.30
2018-02-11T05:22:07.021Z,64.20
2018-02-11T05:24:44.680Z,64.80
2018-02-11T05:30:06.354Z,65.60
2018-02-11T05:32:45.290Z,66.20
2018-02-11T05:35:27.062Z,66.60
2018-02-11T05:38:08.772Z,67.10
2018-02-11T05:40:47.493Z,67.20
2018-02-11T05:43:26.003Z,67.80
2018-02-11T05:46:04.588Z,67.50
2018-02-11T05:48:44.118Z,68.20
2018-02-11T05:51:23.794Z,68.40
2018-02-11T05:54:02.456Z,68.50
2018-02-11T05:56:45.176Z,68.80
2018-02-11T05:59:23.828Z,68.90
2018-02-11T06:02:11.157Z,68.90
2018-02-11T06:04:50.687Z,68.70
2018-02-11T06:07:30.211Z,68.70
2018-02-11T06:10:09.011Z,68.80
2018-02-11T06:12:46.052Z,68.90
2018-02-11T06:15:25.338Z,68.80
2018-02-11T06:18:05.520Z,68.60
2018-02-11T06:20:44.043Z,68.70
2018-02-11T06:23:22.577Z,69.10
2018-02-11T06:26:01.360Z,70.10
2018-02-11T06:28:39.882Z,70.00
2018-02-11T06:31:18.496Z,70.30
2018-02-11T06:33:57.282Z,71.00
2018-02-11T06:36:35.908Z,71.20
2018-02-11T06:39:16.569Z,71.90
2018-02-11T06:41:57.233Z,72.40
2018-02-11T06:44:37.027Z,72.30
2018-02-11T06:47:16.569Z,72.70
2018-02-11T06:49:55.370Z,73.20
2018-02-11T06:52:36.118Z,73.80
2018-02-11T06:55:17.625Z,73.90
2018-02-11T06:57:56.302Z,74.00
2018-02-11T07:00:34.748Z,74.00
2018-02-11T07:03:14.315Z,74.20
2018-02-11T07:05:53.782Z,74.40
2018-02-11T07:08:33.555Z,74.40
2018-02-11T07:11:13.246Z,74.30
2018-02-11T07:13:51.814Z,74.50
2018-02-11T07:16:35.545Z,74.80
2018-02-11T07:19:14.149Z,74.60
2018-02-11T07:21:58.778Z,75.10
2018-02-11T07:24:39.188Z,74.60
2018-02-11T07:27:18.838Z,74.80
2018-02-11T07:30:00.456Z,74.80
2018-02-11T07:32:41.129Z,74.90
2018-02-11T07:35:19.624Z,75.10
2018-02-11T07:38:02.585Z,75.50
2018-02-11T07:40:42.103Z,75.60
2018-02-11T07:43:21.561Z,75.70
2018-02-11T07:46:01.245Z,76.20
2018-02-11T07:48:40.650Z,76.00
2018-02-11T07:51:21.183Z,76.00
2018-02-11T07:53:59.752Z,75.40
2018-02-11T07:56:40.367Z,75.10
2018-02-11T07:59:21.314Z,75.30
2018-02-11T08:02:02.374Z,75.30
2018-02-11T08:04:43.041Z,75.80
2018-02-11T08:07:22.656Z,76.00
2018-02-11T08:10:11.162Z,75.50
2018-02-11T08:12:49.704Z,75.70
2018-02-11T08:15:28.342Z,75.00
2018-02-11T08:18:08.967Z,75.00
2018-02-11T08:20:59.658Z,74.70
2018-02-11T08:23:37.030Z,74.80
2018-02-11T08:26:16.801Z,74.60
2018-02-11T08:28:56.109Z,74.70
2018-02-11T08:31:34.658Z,75.00
2018-02-11T08:34:13.454Z,75.10
2018-02-11T08:39:36.324Z,74.50
2018-02-11T08:42:14.991Z,75.30
2018-02-11T08:44:58.552Z,75.40
2018-02-11T08:47:39.161Z,75.70
2018-02-11T08:50:18.153Z,75.80
2018-02-11T08:53:00.698Z,76.20
2018-02-11T08:55:39.529Z,76.10
2018-02-11T08:58:21.264Z,76.30
2018-02-11T09:00:59.842Z,77.00
2018-02-11T09:03:38.481Z,77.70
2018-02-11T09:06:19.150Z,78.80
2018-02-11T09:08:57.834Z,79.30
2018-02-11T09:11:36.466Z,79.30
2018-02-11T09:14:16.284Z,79.90
2018-02-11T09:16:54.866Z,80.20
2018-02-11T09:19:36.034Z,80.30
2018-02-11T09:22:17.001Z,80.40
2018-02-11T09:24:57.011Z,80.30
2018-02-11T09:27:35.524Z,80.30
2018-02-11T09:30:14.174Z,80.20
2018-02-11T09:32:54.959Z,80.20
2018-02-11T09:35:35.500Z,80.20
2018-02-11T09:38:14.216Z,80.20
2018-02-11T09:40:52.958Z,80.20
2018-02-11T09:43:34.749Z,80.00
2018-02-11T09:46:13.249Z,79.90
2018-02-11T09:48:51.847Z,78.80
2018-02-11T09:51:30.383Z,78.10
2018-02-11T09:54:11.904Z,77.80
2018-02-11T09:56:50.374Z,77.60
2018-02-11T09:59:31.976Z,77.80
2018-02-11T10:02:10.629Z,77.50
2018-02-11T10:04:50.815Z,77.70
2018-02-11T10:07:30.985Z,78.00
2018-02-11T10:10:09.496Z,77.60
2018-02-11T10:12:48.064Z,77.60
2018-02-11T10:15:29.838Z,77.40
2018-02-11T10:18:09.548Z,77.00
2018-02-11T10:20:47.269Z,77.00
2018-02-11T10:23:27.031Z,77.00
2018-02-11T10:26:06.639Z,77.70
2018-02-11T10:28:46.276Z,77.50
2018-02-11T10:31:24.856Z,77.50
2018-02-11T10:34:03.519Z,77.30
2018-02-11T10:36:42.129Z,78.00
2018-02-11T10:39:20.883Z,77.30
2018-02-11T10:42:00.588Z,77.50
2018-02-11T10:44:40.021Z,77.30
2018-02-11T10:47:18.515Z,77.10
2018-02-11T10:49:59.145Z,77.00
2018-02-11T10:52:36.980Z,77.20
2018-02-11T10:55:15.424Z,77.70
2018-02-11T10:57:53.976Z,78.30
2018-02-11T11:00:33.500Z,78.60
2018-02-11T11:03:12.187Z,78.80
2018-02-11T11:05:50.794Z,78.70
2018-02-11T11:08:32.549Z,78.40
2018-02-11T11:11:11.104Z,78.00
2018-02-11T11:13:53.300Z,78.30
2018-02-11T11:16:32.488Z,78.20
2018-02-11T11:19:11.056Z,78.40
2018-02-11T11:21:49.630Z,78.90
2018-02-11T11:24:31.209Z,78.90
2018-02-11T11:29:50.357Z,78.70
2018-02-11T11:32:29.944Z,77.90
2018-02-11T11:35:07.813Z,77.70
2018-02-11T11:37:46.310Z,77.70
2018-02-11T11:40:27.643Z,77.90
2018-02-11T11:43:10.108Z,78.10
2018-02-11T11:45:51.522Z,77.60
2018-02-11T11:48:30.367Z,77.60
2018-02-11T11:51:08.733Z,77.40
2018-02-11T11:53:47.315Z,77.60
2018-02-11T11:56:27.825Z,77.90
2018-02-11T11:59:06.428Z,78.50
2018-02-11T12:01:51.140Z,78.30
2018-02-11T12:04:29.769Z,78.30
2018-02-11T12:07:09.189Z,77.70
2018-02-11T12:09:48.815Z,77.60
2018-02-11T12:12:26.964Z,77.50
2018-02-11T12:15:05.400Z,78.00
2018-02-11T12:17:45.422Z,78.30
2018-02-11T12:20:26.435Z,78.40
2018-02-11T12:23:07.908Z,78.20
2018-02-11T12:25:47.545Z,78.20
2018-02-11T12:28:27.284Z,78.60
2018-02-11T12:31:05.883Z,78.80
2018-02-11T12:33:44.576Z,78.80
2018-02-11T12:36:24.394Z,78.80
2018-02-11T12:39:03.989Z,78.30
2018-02-11T12:41:42.539Z,77.70
2018-02-11T12:44:26.087Z,77.30
2018-02-11T12:47:10.499Z,77.10
2018-02-11T12:49:50.069Z,76.80
2018-02-11T12:52:31.844Z,76.80
2018-02-11T12:55:13.417Z,76.70
2018-02-11T12:57:52.871Z,77.00
2018-02-11T13:00:32.637Z,77.30
2018-02-11T13:03:11.275Z,77.40
2018-02-11T13:05:49.895Z,78.10
2018-02-11T13:08:29.608Z,77.00
2018-02-11T13:11:09.985Z,76.90
2018-02-11T13:13:48.594Z,76.70
2018-02-11T13:16:28.330Z,77.20
2018-02-11T13:19:08.803Z,77.20
2018-02-11T13:21:49.430Z,76.40
2018-02-11T13:24:28.987Z,76.30
2018-02-11T13:27:11.681Z,76.60
2018-02-11T13:29:51.196Z,76.70
2018-02-11T13:32:31.907Z,77.10
2018-02-11T13:35:15.476Z,76.90
2018-02-11T13:37:55.143Z,76.70
2018-02-11T13:40:33.846Z,76.80
2018-02-11T13:43:12.363Z,76.80
2018-02-11T13:45:53.352Z,77.00
2018-02-11T13:48:31.539Z,77.00
2018-02-11T13:51:11.359Z,77.40
2018-02-11T13:53:49.935Z,77.30
2018-02-11T13:56:28.506Z,78.00
2018-02-11T13:59:07.045Z,77.20
2018-02-11T14:01:48.753Z,77.00
2018-02-11T14:04:27.363Z,77.40
2018-02-11T14:07:08.205Z,77.60
2018-02-11T14:09:47.833Z,77.70
2018-02-11T14:12:27.084Z,77.50
2018-02-11T14:15:07.474Z,76.40
2018-02-11T14:17:45.671Z,76.40
2018-02-11T14:20:26.375Z,76.70
2018-02-11T14:23:07.032Z,77.20
2018-02-11T14:25:44.237Z,78.10
2018-02-11T14:28:25.174Z,79.00
2018-02-11T14:31:03.668Z,79.20
2018-02-11T14:33:42.121Z,79.00
2018-02-11T14:36:21.703Z,78.90
2018-02-11T14:39:02.222Z,78.40
2018-02-11T14:41:41.237Z,78.50
2018-02-11T14:44:19.592Z,78.90
2018-02-11T14:46:58.361Z,78.60
2018-02-11T14:52:22.484Z,79.00
2018-02-11T14:55:01.776Z,79.00
2018-02-11T14:57:39.840Z,79.40
2018-02-11T15:00:19.601Z,79.20
2018-02-11T15:03:03.350Z,79.60
2018-02-11T15:05:41.964Z,79.70
2018-02-11T15:08:21.649Z,80.00
2018-02-11T15:11:01.105Z,80.00
2018-02-11T15:13:39.776Z,80.40
2018-02-11T15:16:18.479Z,80.30
2018-02-11T15:18:57.177Z,80.00
2018-02-11T15:21:35.739Z,79.80
2018-02-11T15:24:17.283Z,79.50
2018-02-11T15:26:55.847Z,79.50
2018-02-11T15:29:35.284Z,80.10
2018-02-11T15:32:14.766Z,79.90
2018-02-11T15:34:57.286Z,80.10
2018-02-11T15:37:38.928Z,80.30
2018-02-11T15:40:16.051Z,80.30
2018-02-11T15:42:55.022Z,80.20
2018-02-11T15:45:33.531Z,80.10
2018-02-11T15:48:14.193Z,80.40
2018-02-11T15:50:53.970Z,80.60
2018-02-11T15:53:34.647Z,80.60
2018-02-11T15:56:14.242Z,80.10
2018-02-11T16:01:35.168Z,80.40
2018-02-11T16:04:13.609Z,80.50
2018-02-11T16:06:53.283Z,80.70
2018-02-11T16:09:33.293Z,80.70
2018-02-11T16:12:11.628Z,80.50
2018-02-11T16:14:51.106Z,81.00
2018-02-11T16:17:31.530Z,81.00
2018-02-11T16:20:11.028Z,80.90
2018-02-11T16:22:51.561Z,80.70
2018-02-11T16:25:30.185Z,80.20
2018-02-11T16:28:09.750Z,79.60
2018-02-11T16:30:51.242Z,79.60
2018-02-11T16:33:31.358Z,79.70
2018-02-11T16:36:11.553Z,79.40
2018-02-11T16:38:52.676Z,79.00
2018-02-11T16:41:31.654Z,78.90
2018-02-11T16:44:13.323Z,78.90
2018-02-11T16:46:52.991Z,79.00
2018-02-11T16:49:32.615Z,79.00
2018-02-11T16:52:12.229Z,79.20
2018-02-11T16:54:51.477Z,79.10
2018-02-11T16:57:30.298Z,79.10
2018-02-11T17:00:08.810Z,79.00
2018-02-11T17:02:48.482Z,79.20
2018-02-11T17:05:29.115Z,79.60
2018-02-11T17:08:08.717Z,77.90
2018-02-11T17:10:51.208Z,75.60
2018-02-11T17:13:29.793Z,74.90
2018-02-11T17:16:09.586Z,74.80
2018-02-11T17:18:50.015Z,73.90
2018-02-11T17:21:28.736Z,72.20
2018-02-11T17:24:06.358Z,69.50
2018-02-11T17:26:46.963Z,67.70
2018-02-11T17:29:26.505Z,65.50
2018-02-11T17:32:08.198Z,62.80
2018-02-11T17:34:46.853Z,62.80
2018-02-11T17:37:25.304Z,64.10
2018-02-11T17:40:04.996Z,64.60
2018-02-11T17:42:43.589Z,64.10
2018-02-11T17:45:23.005Z,65.30
2018-02-11T17:48:01.642Z,65.10
2018-02-11T17:50:41.185Z,64.00
2018-02-11T17:53:19.626Z,63.90
2018-02-11T17:55:57.191Z,64.50
2018-02-11T17:58:35.928Z,64.50
2018-02-11T18:01:16.516Z,65.00
2018-02-11T18:03:55.095Z,65.10
2018-02-11T18:06:34.630Z,64.90
2018-02-11T18:09:14.103Z,64.80
2018-02-11T18:11:52.747Z,64.50
2018-02-11T18:14:33.312Z,63.50
2018-02-11T18:17:12.192Z,62.90
2018-02-11T18:22:32.507Z,61.20
2018-02-11T18:25:11.589Z,63.10
2018-02-11T18:27:49.944Z,58.00
2018-02-11T18:30:32.592Z,55.60
2018-02-11T18:33:10.053Z,53.20
2018-02-11T18:35:48.656Z,51.70
2018-02-11T18:38:27.152Z,52.60
2018-02-11T18:41:10.005Z,52.20
2018-02-11T18:43:50.473Z,54.30
2018-02-11T18:46:29.099Z,54.10
2018-02-11T18:49:07.550Z,50.10
2018-02-11T18:51:46.300Z,53.60
2018-02-11T18:54:25.174Z,53.70
2018-02-11T18:57:05.558Z,52.50
2018-02-11T18:59:46.176Z,47.20
2018-02-11T19:02:24.669Z,43.30
2018-02-11T19:05:02.212Z,42.30
2018-02-11T19:07:47.667Z,44.10
2018-02-11T19:10:30.348Z,44.10
2018-02-11T19:13:07.872Z,38.40
2018-02-11T19:15:46.372Z,39.90
2018-02-11T19:18:25.038Z,40.70
2018-02-11T19:21:05.494Z,37.50
2018-02-11T19:23:43.942Z,37.50
2018-02-11T19:26:22.530Z,35.40
2018-02-11T19:29:01.193Z,35.50
2018-02-11T19:31:40.002Z,35.20
2018-02-11T19:34:18.786Z,36.00
2018-02-11T19:36:57.404Z,34.70
2018-02-11T19:39:36.210Z,33.80
2018-02-11T19:42:16.121Z,32.90
2018-02-11T19:44:55.727Z,33.00
2018-02-11T19:47:35.785Z,35.90
2018-02-11T19:50:15.121Z,36.00
2018-02-11T19:52:55.676Z,33.70
2018-02-11T19:55:35.132Z,33.00
2018-02-11T19:58:13.814Z,33.10
2018-02-11T20:00:52.374Z,32.30
2018-02-11T20:03:37.088Z,31.00
2018-02-11T20:06:15.849Z,29.90
2018-02-11T20:08:53.523Z,35.20
2018-02-11T20:11:35.209Z,29.80
2018-02-11T20:14:13.640Z,29.60
2018-02-11T20:16:52.240Z,34.70
2018-02-11T20:19:30.662Z,32.70
2018-02-11T20:22:10.449Z,28.50
2018-02-11T20:24:49.150Z,28.40
2018-02-11T20:27:31.905Z,29.20
2018-02-11T20:30:12.499Z,31.30
2018-02-11T20:32:53.166Z,31.10
2018-02-11T20:35:31.983Z,30.70
2018-02-11T20:38:10.369Z,31.40
2018-02-11T20:40:48.896Z,33.90
2018-02-11T20:43:26.351Z,31.90
2018-02-11T20:46:04.854Z,28.90
2018-02-11T20:48:43.530Z,30.60
2018-02-11T20:51:23.063Z,31.60
2018-02-11T20:54:02.538Z,31.90
2018-02-11T20:56:40.192Z,31.70
2018-02-11T20:59:18.460Z,30.90
2018-02-11T21:01:56.918Z,31.80
2018-02-11T21:04:36.487Z,29.50
2018-02-11T21:07:14.907Z,29.50
2018-02-11T21:09:53.385Z,30.30
2018-02-11T21:12:36.005Z,28.20
2018-02-11T21:15:16.763Z,28.20
2018-02-11T21:17:57.190Z,28.90
2018-02-11T21:20:35.754Z,28.60
2018-02-11T21:23:14.127Z,29.80
2018-02-11T21:25:52.582Z,28.90
2018-02-11T21:28:31.078Z,27.10
2018-02-11T21:31:11.597Z,29.60
2018-02-11T21:33:50.171Z,29.90
2018-02-11T21:36:28.569Z,28.70
2018-02-11T21:39:09.127Z,29.70
2018-02-11T21:41:52.684Z,29.10
2018-02-11T21:44:34.379Z,27.80
2018-02-11T21:49:54.456Z,27.60
2018-02-11T21:52:34.154Z,26.70
2018-02-11T21:55:14.655Z,25.10
2018-02-11T21:57:53.192Z,26.40
2018-02-11T22:00:30.891Z,25.90
2018-02-11T22:03:09.307Z,26.50
2018-02-11T22:05:51.857Z,28.60
2018-02-11T22:08:32.436Z,28.30
2018-02-11T22:11:11.884Z,26.40
2018-02-11T22:13:52.354Z,27.10
2018-02-11T22:16:32.069Z,27.10
2018-02-11T22:19:10.442Z,25.40
2018-02-11T22:21:50.210Z,25.90
2018-02-11T22:24:28.531Z,27.60
2018-02-11T22:27:08.996Z,26.90
2018-02-11T22:29:47.414Z,28.00
2018-02-11T22:32:25.917Z,27.10
2018-02-11T22:35:04.455Z,29.00
2018-02-11T22:37:42.951Z,29.10
2018-02-11T22:40:21.419Z,29.00
2018-02-11T22:42:59.767Z,28.80
2018-02-11T22:45:38.162Z,28.10
2018-02-11T22:48:16.648Z,29.60
2018-02-11T22:50:57.534Z,30.50
2018-02-11T22:53:35.903Z,29.50
2018-02-11T22:56:14.539Z,30.00
2018-02-11T22:58:55.113Z,31.30
2018-02-11T23:01:33.521Z,30.80
2018-02-11T23:04:12.968Z,30.90
2018-02-11T23:06:52.211Z,30.90
2018-02-11T23:09:33.216Z,31.40
2018-02-11T23:12:11.656Z,31.80
2018-02-11T23:14:53.234Z,32.30
2018-02-11T23:17:31.953Z,32.70
2018-02-11T23:20:12.975Z,32.40
2018-02-11T23:22:52.175Z,35.80
2018-02-11T23:25:30.638Z,35.10
2018-02-11T23:28:13.226Z,32.00
2018-02-11T23:30:52.836Z,32.20
2018-02-11T23:33:31.288Z,32.10
2018-02-11T23:36:11.941Z,32.00
2018-02-11T23:38:55.579Z,31.20
2018-02-11T23:41:36.963Z,31.10
2018-02-11T23:44:17.377Z,32.20
2018-02-11T23:46:55.923Z,31.20
2018-02-11T23:49:35.408Z,31.70
2018-02-11T23:52:14.078Z,32.50
2018-02-11T23:54:52.480Z,32.80
2018-02-11T23:57:35.079Z,32.10
